Portada
METAR-TAF:

METAR-TAF

Aeroports :

Burgos, Espanya

latitud: 42-22N, longitud: 003-38W, altitud: 894 m

Observació

L'informe es va fer fa 15 minuts, a les 20:30 UTC
Vent 6 kt del Oest, variant entre Sud-Oest i Oest/Nord-Oest
Temperatura 3°C
Humitat 93%
Pressió 1011 hPa
Visibilitat 10 km o més
(lleu) desconegut

METAR: LEBG 222030Z AUTO 26006KT 230V290 9999 -UP BKN027/// BKN034/// 03/02 Q1011

Hora: 21:45 (20:45 UTC)

Pronòstic

L'informe es va fer fa 3 hores i 45 minuts, a les 17:00 UTC
Pronòstic vàlid del 22 a les 18 UTC al 23 a les 03 UTC
Vent 10 kt del Oest/Sud-Oest
Visibilitat 10 km o més
Núvols disperses a una alçada de 1000 ft
Cel ennuvolat a una alçada de 1500 ft
Temporalment
l' 22 a les 18 UTC al 23 a les 03 UTC
Visibilitat: 2000 m
Cel cobert a una alçada de 600 ft
neu, pluja

TAF: LEBG 221700Z 2218/2303 25010KT 9999 SCT010 BKN015 TEMPO 2218/2303 2000 SNRA OVC006

Observacions i pronòstics meteorològics de més de 4000 aeroports (METAR i TAF).

Les estacions disponibles són els punts grocs i vermells al mapa.

Posi el ratolí al punt desitjat per veure el nom de l'estació.

Feu clic per veure les observacions i els pronòstics meteorològics.

Per canviar el mapa: feu clic els botons verds amb una creu de color negre per apropar; al botó verd amb un guió per allunyar la imatge; o en les fletxes verdes per a mapes adjacents.


METAR-TAF: